sensor_id;sensor_type;location;lat;lon;timestamp;P1;durP1;ratioP1;P2;durP2;ratioP2
18610;SDS011;9435;52.122;5.502;2022-08-19T00:01:49;6.50;;;5.35;;
18610;SDS011;9435;52.122;5.502;2022-08-19T00:04:18;6.13;;;4.88;;
18610;SDS011;9435;52.122;5.502;2022-08-19T00:06:47;7.15;;;5.35;;
18610;SDS011;9435;52.122;5.502;2022-08-19T00:09:15;7.57;;;5.57;;
18610;SDS011;9435;52.122;5.502;2022-08-19T00:11:43;7.28;;;5.50;;
18610;SDS011;9435;52.122;5.502;2022-08-19T00:14:13;8.15;;;6.22;;
18610;SDS011;9435;52.122;5.502;2022-08-19T00:16:42;6.93;;;5.43;;
18610;SDS011;9435;52.122;5.502;2022-08-19T00:19:11;6.07;;;5.10;;
18610;SDS011;9435;52.122;5.502;2022-08-19T00:21:38;7.40;;;5.80;;
18610;SDS011;9435;52.122;5.502;2022-08-19T00:24:05;6.03;;;4.90;;
18610;SDS011;9435;52.122;5.502;2022-08-19T00:26:33;8.13;;;5.80;;
18610;SDS011;9435;52.122;5.502;2022-08-19T00:29:00;7.40;;;5.60;;
18610;SDS011;9435;52.122;5.502;2022-08-19T00:31:30;7.45;;;5.63;;
18610;SDS011;9435;52.122;5.502;2022-08-19T00:33:57;7.15;;;4.78;;
18610;SDS011;9435;52.122;5.502;2022-08-19T00:36:24;7.32;;;5.43;;
18610;SDS011;9435;52.122;5.502;2022-08-19T00:38:51;8.52;;;6.03;;
18610;SDS011;9435;52.122;5.502;2022-08-19T00:41:19;9.80;;;6.35;;
18610;SDS011;9435;52.122;5.502;2022-08-19T00:43:56;7.03;;;6.00;;
18610;SDS011;9435;52.122;5.502;2022-08-19T00:46:25;9.48;;;6.47;;
18610;SDS011;9435;52.122;5.502;2022-08-19T00:48:53;8.18;;;6.50;;
18610;SDS011;9435;52.122;5.502;2022-08-19T00:51:21;7.75;;;6.35;;
18610;SDS011;9435;52.122;5.502;2022-08-19T00:53:50;10.80;;;8.20;;
18610;SDS011;9435;52.122;5.502;2022-08-19T00:56:17;8.00;;;6.40;;
18610;SDS011;9435;52.122;5.502;2022-08-19T00:58:44;8.25;;;5.80;;
18610;SDS011;9435;52.122;5.502;2022-08-19T01:01:11;7.25;;;5.38;;
18610;SDS011;9435;52.122;5.502;2022-08-19T01:03:39;8.00;;;5.55;;
18610;SDS011;9435;52.122;5.502;2022-08-19T01:06:07;6.72;;;5.03;;
18610;SDS011;9435;52.122;5.502;2022-08-19T01:08:34;7.57;;;5.15;;
18610;SDS011;9435;52.122;5.502;2022-08-19T01:11:01;8.55;;;6.00;;
18610;SDS011;9435;52.122;5.502;2022-08-19T01:13:30;5.85;;;4.82;;
18610;SDS011;9435;52.122;5.502;2022-08-19T01:16:00;6.95;;;5.30;;
18610;SDS011;9435;52.122;5.502;2022-08-19T01:18:29;7.35;;;5.47;;
18610;SDS011;9435;52.122;5.502;2022-08-19T01:20:59;8.55;;;6.00;;
18610;SDS011;9435;52.122;5.502;2022-08-19T01:23:30;6.78;;;5.53;;
18610;SDS011;9435;52.122;5.502;2022-08-19T01:26:09;6.38;;;4.47;;
18610;SDS011;9435;52.122;5.502;2022-08-19T01:28:38;5.82;;;4.60;;
18610;SDS011;9435;52.122;5.502;2022-08-19T01:31:05;6.25;;;4.60;;
18610;SDS011;9435;52.122;5.502;2022-08-19T01:33:36;7.60;;;5.70;;
18610;SDS011;9435;52.122;5.502;2022-08-19T01:36:05;10.00;;;6.93;;
18610;SDS011;9435;52.122;5.502;2022-08-19T01:38:36;9.80;;;7.43;;
18610;SDS011;9435;52.122;5.502;2022-08-19T01:41:04;9.57;;;6.40;;
18610;SDS011;9435;52.122;5.502;2022-08-19T01:43:31;7.93;;;5.35;;
18610;SDS011;9435;52.122;5.502;2022-08-19T01:45:58;9.98;;;6.72;;
18610;SDS011;9435;52.122;5.502;2022-08-19T01:48:25;8.07;;;5.95;;
18610;SDS011;9435;52.122;5.502;2022-08-19T01:50:54;10.00;;;6.60;;
18610;SDS011;9435;52.122;5.502;2022-08-19T01:53:21;11.45;;;7.22;;
18610;SDS011;9435;52.122;5.502;2022-08-19T01:55:49;9.70;;;7.38;;
18610;SDS011;9435;52.122;5.502;2022-08-19T01:58:18;11.15;;;7.70;;
18610;SDS011;9435;52.122;5.502;2022-08-19T02:00:47;11.35;;;8.15;;
18610;SDS011;9435;52.122;5.502;2022-08-19T02:03:14;11.02;;;8.10;;
18610;SDS011;9435;52.122;5.502;2022-08-19T02:05:42;12.40;;;8.20;;
18610;SDS011;9435;52.122;5.502;2022-08-19T02:08:10;15.35;;;7.45;;
18610;SDS011;9435;52.122;5.502;2022-08-19T02:10:39;8.43;;;6.53;;
18610;SDS011;9435;52.122;5.502;2022-08-19T02:13:09;9.95;;;6.70;;
18610;SDS011;9435;52.122;5.502;2022-08-19T02:15:36;10.40;;;6.88;;
18610;SDS011;9435;52.122;5.502;2022-08-19T02:18:04;10.13;;;6.65;;
18610;SDS011;9435;52.122;5.502;2022-08-19T02:20:33;10.20;;;7.00;;
18610;SDS011;9435;52.122;5.502;2022-08-19T02:23:00;12.13;;;7.20;;
18610;SDS011;9435;52.122;5.502;2022-08-19T02:25:27;14.20;;;7.85;;
18610;SDS011;9435;52.122;5.502;2022-08-19T02:27:54;12.55;;;7.85;;
18610;SDS011;9435;52.122;5.502;2022-08-19T02:30:23;8.07;;;6.05;;
18610;SDS011;9435;52.122;5.502;2022-08-19T02:32:50;8.65;;;6.40;;
18610;SDS011;9435;52.122;5.502;2022-08-19T02:35:17;9.98;;;6.90;;
18610;SDS011;9435;52.122;5.502;2022-08-19T02:37:45;11.45;;;7.25;;
18610;SDS011;9435;52.122;5.502;2022-08-19T02:40:30;14.88;;;9.77;;
18610;SDS011;9435;52.122;5.502;2022-08-19T02:42:59;14.15;;;9.85;;
18610;SDS011;9435;52.122;5.502;2022-08-19T02:45:30;13.35;;;9.07;;
18610;SDS011;9435;52.122;5.502;2022-08-19T02:47:58;13.02;;;8.52;;
18610;SDS011;9435;52.122;5.502;2022-08-19T02:50:25;10.48;;;7.57;;
18610;SDS011;9435;52.122;5.502;2022-08-19T02:52:52;10.82;;;7.30;;
18610;SDS011;9435;52.122;5.502;2022-08-19T02:55:18;11.40;;;7.05;;
18610;SDS011;9435;52.122;5.502;2022-08-19T02:57:45;10.02;;;7.50;;
18610;SDS011;9435;52.122;5.502;2022-08-19T03:00:13;10.40;;;7.68;;
18610;SDS011;9435;52.122;5.502;2022-08-19T03:02:42;10.57;;;7.60;;
18610;SDS011;9435;52.122;5.502;2022-08-19T03:05:09;13.32;;;7.63;;
18610;SDS011;9435;52.122;5.502;2022-08-19T03:07:37;12.32;;;8.02;;
18610;SDS011;9435;52.122;5.502;2022-08-19T03:10:04;11.38;;;7.78;;
18610;SDS011;9435;52.122;5.502;2022-08-19T03:12:34;11.75;;;8.23;;
18610;SDS011;9435;52.122;5.502;2022-08-19T03:15:02;11.38;;;8.40;;
18610;SDS011;9435;52.122;5.502;2022-08-19T03:17:31;12.13;;;8.68;;
18610;SDS011;9435;52.122;5.502;2022-08-19T03:19:59;12.27;;;8.02;;
18610;SDS011;9435;52.122;5.502;2022-08-19T03:22:27;10.95;;;8.40;;
18610;SDS011;9435;52.122;5.502;2022-08-19T03:24:55;9.82;;;7.18;;
18610;SDS011;9435;52.122;5.502;2022-08-19T03:27:22;8.75;;;7.00;;
18610;SDS011;9435;52.122;5.502;2022-08-19T03:29:49;9.05;;;6.47;;
18610;SDS011;9435;52.122;5.502;2022-08-19T03:32:16;10.00;;;7.47;;
18610;SDS011;9435;52.122;5.502;2022-08-19T03:34:43;10.82;;;7.70;;
18610;SDS011;9435;52.122;5.502;2022-08-19T03:37:11;9.48;;;7.05;;
18610;SDS011;9435;52.122;5.502;2022-08-19T03:39:39;10.02;;;8.00;;
18610;SDS011;9435;52.122;5.502;2022-08-19T03:42:07;9.05;;;7.20;;
18610;SDS011;9435;52.122;5.502;2022-08-19T03:44:35;9.70;;;7.00;;
18610;SDS011;9435;52.122;5.502;2022-08-19T03:47:02;10.25;;;7.50;;
18610;SDS011;9435;52.122;5.502;2022-08-19T03:49:31;10.18;;;7.38;;
18610;SDS011;9435;52.122;5.502;2022-08-19T03:52:00;10.73;;;6.78;;
18610;SDS011;9435;52.122;5.502;2022-08-19T03:54:28;9.00;;;6.68;;
18610;SDS011;9435;52.122;5.502;2022-08-19T03:56:56;9.77;;;7.20;;
18610;SDS011;9435;52.122;5.502;2022-08-19T03:59:24;14.13;;;8.40;;
18610;SDS011;9435;52.122;5.502;2022-08-19T04:01:54;12.10;;;7.55;;
18610;SDS011;9435;52.122;5.502;2022-08-19T04:04:22;15.90;;;8.75;;
18610;SDS011;9435;52.122;5.502;2022-08-19T04:06:49;15.07;;;8.98;;
18610;SDS011;9435;52.122;5.502;2022-08-19T04:09:17;14.73;;;8.80;;
18610;SDS011;9435;52.122;5.502;2022-08-19T04:11:47;13.43;;;8.63;;
18610;SDS011;9435;52.122;5.502;2022-08-19T04:14:17;12.68;;;7.82;;
18610;SDS011;9435;52.122;5.502;2022-08-19T04:16:46;11.32;;;7.80;;
18610;SDS011;9435;52.122;5.502;2022-08-19T04:19:14;12.70;;;7.75;;
18610;SDS011;9435;52.122;5.502;2022-08-19T04:21:43;11.73;;;7.78;;
18610;SDS011;9435;52.122;5.502;2022-08-19T04:24:12;13.85;;;7.90;;
18610;SDS011;9435;52.122;5.502;2022-08-19T04:26:39;12.10;;;7.50;;
18610;SDS011;9435;52.122;5.502;2022-08-19T04:29:09;13.63;;;7.78;;
18610;SDS011;9435;52.122;5.502;2022-08-19T04:31:38;12.57;;;7.60;;
18610;SDS011;9435;52.122;5.502;2022-08-19T04:34:06;11.80;;;7.40;;
18610;SDS011;9435;52.122;5.502;2022-08-19T04:36:35;10.60;;;7.30;;
18610;SDS011;9435;52.122;5.502;2022-08-19T04:39:05;12.55;;;8.02;;
18610;SDS011;9435;52.122;5.502;2022-08-19T04:41:34;12.60;;;7.82;;
18610;SDS011;9435;52.122;5.502;2022-08-19T04:44:20;11.77;;;7.63;;
18610;SDS011;9435;52.122;5.502;2022-08-19T04:46:47;11.00;;;7.88;;
18610;SDS011;9435;52.122;5.502;2022-08-19T04:49:16;12.55;;;8.15;;
18610;SDS011;9435;52.122;5.502;2022-08-19T04:51:45;11.45;;;7.18;;
18610;SDS011;9435;52.122;5.502;2022-08-19T04:54:14;9.57;;;6.30;;
18610;SDS011;9435;52.122;5.502;2022-08-19T04:56:41;8.93;;;6.35;;
18610;SDS011;9435;52.122;5.502;2022-08-19T04:59:09;7.30;;;5.65;;
18610;SDS011;9435;52.122;5.502;2022-08-19T05:01:38;7.57;;;5.65;;
18610;SDS011;9435;52.122;5.502;2022-08-19T05:04:05;6.82;;;5.40;;
18610;SDS011;9435;52.122;5.502;2022-08-19T05:06:33;8.32;;;6.00;;
18610;SDS011;9435;52.122;5.502;2022-08-19T05:09:00;7.38;;;5.95;;
18610;SDS011;9435;52.122;5.502;2022-08-19T05:11:30;8.73;;;6.65;;
18610;SDS011;9435;52.122;5.502;2022-08-19T05:13:58;8.30;;;6.28;;
18610;SDS011;9435;52.122;5.502;2022-08-19T05:16:25;8.27;;;6.43;;
18610;SDS011;9435;52.122;5.502;2022-08-19T05:18:54;9.80;;;6.82;;
18610;SDS011;9435;52.122;5.502;2022-08-19T05:21:41;12.45;;;7.40;;
18610;SDS011;9435;52.122;5.502;2022-08-19T05:24:27;9.75;;;7.00;;
18610;SDS011;9435;52.122;5.502;2022-08-19T05:26:55;12.70;;;7.63;;
18610;SDS011;9435;52.122;5.502;2022-08-19T05:29:24;14.88;;;8.90;;
18610;SDS011;9435;52.122;5.502;2022-08-19T05:31:52;12.57;;;8.57;;
18610;SDS011;9435;52.122;5.502;2022-08-19T05:34:22;15.55;;;9.25;;
18610;SDS011;9435;52.122;5.502;2022-08-19T05:36:51;13.10;;;8.90;;
18610;SDS011;9435;52.122;5.502;2022-08-19T05:39:22;14.95;;;8.98;;
18610;SDS011;9435;52.122;5.502;2022-08-19T05:41:53;13.02;;;8.90;;
18610;SDS011;9435;52.122;5.502;2022-08-19T05:44:22;11.40;;;8.45;;
18610;SDS011;9435;52.122;5.502;2022-08-19T05:46:50;14.55;;;9.43;;
18610;SDS011;9435;52.122;5.502;2022-08-19T05:49:19;14.10;;;9.48;;
18610;SDS011;9435;52.122;5.502;2022-08-19T05:51:50;20.55;;;11.68;;
18610;SDS011;9435;52.122;5.502;2022-08-19T05:54:18;25.55;;;14.77;;
18610;SDS011;9435;52.122;5.502;2022-08-19T05:56:45;29.27;;;15.95;;
18610;SDS011;9435;52.122;5.502;2022-08-19T05:59:13;32.40;;;18.30;;
18610;SDS011;9435;52.122;5.502;2022-08-19T06:01:44;36.35;;;19.58;;
18610;SDS011;9435;52.122;5.502;2022-08-19T06:04:15;42.65;;;21.83;;
18610;SDS011;9435;52.122;5.502;2022-08-19T06:06:45;43.72;;;22.58;;
18610;SDS011;9435;52.122;5.502;2022-08-19T06:09:12;51.85;;;24.60;;
18610;SDS011;9435;52.122;5.502;2022-08-19T06:11:40;46.55;;;23.77;;
18610;SDS011;9435;52.122;5.502;2022-08-19T06:14:10;56.03;;;26.23;;
18610;SDS011;9435;52.122;5.502;2022-08-19T06:16:40;54.28;;;26.65;;
18610;SDS011;9435;52.122;5.502;2022-08-19T06:19:09;59.28;;;27.63;;
18610;SDS011;9435;52.122;5.502;2022-08-19T06:21:38;57.17;;;26.98;;
18610;SDS011;9435;52.122;5.502;2022-08-19T06:24:08;62.83;;;29.40;;
18610;SDS011;9435;52.122;5.502;2022-08-19T06:26:37;63.08;;;28.45;;
18610;SDS011;9435;52.122;5.502;2022-08-19T06:29:06;67.13;;;28.65;;
18610;SDS011;9435;52.122;5.502;2022-08-19T06:31:34;70.63;;;30.30;;
18610;SDS011;9435;52.122;5.502;2022-08-19T06:34:04;66.40;;;29.63;;
18610;SDS011;9435;52.122;5.502;2022-08-19T06:36:32;66.00;;;30.00;;
18610;SDS011;9435;52.122;5.502;2022-08-19T06:39:01;74.93;;;33.47;;
18610;SDS011;9435;52.122;5.502;2022-08-19T06:41:32;73.85;;;34.00;;
18610;SDS011;9435;52.122;5.502;2022-08-19T06:44:03;72.57;;;33.17;;
18610;SDS011;9435;52.122;5.502;2022-08-19T06:46:30;69.90;;;34.05;;
18610;SDS011;9435;52.122;5.502;2022-08-19T06:48:57;71.63;;;32.92;;
18610;SDS011;9435;52.122;5.502;2022-08-19T06:51:25;70.35;;;33.35;;
18610;SDS011;9435;52.122;5.502;2022-08-19T06:53:53;65.97;;;33.28;;
18610;SDS011;9435;52.122;5.502;2022-08-19T06:56:23;68.47;;;34.30;;
18610;SDS011;9435;52.122;5.502;2022-08-19T06:58:57;68.57;;;32.65;;
18610;SDS011;9435;52.122;5.502;2022-08-19T07:01:24;66.00;;;33.25;;
18610;SDS011;9435;52.122;5.502;2022-08-19T07:03:52;78.03;;;37.35;;
18610;SDS011;9435;52.122;5.502;2022-08-19T07:06:19;81.32;;;37.78;;
18610;SDS011;9435;52.122;5.502;2022-08-19T07:08:46;82.40;;;38.03;;
18610;SDS011;9435;52.122;5.502;2022-08-19T07:11:16;89.07;;;38.90;;
18610;SDS011;9435;52.122;5.502;2022-08-19T07:13:44;88.63;;;39.83;;
18610;SDS011;9435;52.122;5.502;2022-08-19T07:16:16;98.38;;;41.40;;
18610;SDS011;9435;52.122;5.502;2022-08-19T07:18:44;94.35;;;40.55;;
18610;SDS011;9435;52.122;5.502;2022-08-19T07:21:16;91.70;;;39.15;;
18610;SDS011;9435;52.122;5.502;2022-08-19T07:23:45;95.45;;;40.63;;
18610;SDS011;9435;52.122;5.502;2022-08-19T07:26:16;91.18;;;39.92;;
18610;SDS011;9435;52.122;5.502;2022-08-19T07:28:48;90.15;;;40.05;;
18610;SDS011;9435;52.122;5.502;2022-08-19T07:31:21;90.35;;;39.25;;
18610;SDS011;9435;52.122;5.502;2022-08-19T07:33:50;93.70;;;39.22;;
18610;SDS011;9435;52.122;5.502;2022-08-19T07:36:20;89.50;;;36.85;;
18610;SDS011;9435;52.122;5.502;2022-08-19T07:38:50;90.68;;;39.05;;
18610;SDS011;9435;52.122;5.502;2022-08-19T07:41:20;80.15;;;37.58;;
18610;SDS011;9435;52.122;5.502;2022-08-19T07:43:50;75.78;;;36.28;;
18610;SDS011;9435;52.122;5.502;2022-08-19T07:46:19;72.47;;;35.03;;
18610;SDS011;9435;52.122;5.502;2022-08-19T07:48:47;77.75;;;37.47;;
18610;SDS011;9435;52.122;5.502;2022-08-19T07:51:17;73.30;;;35.88;;
18610;SDS011;9435;52.122;5.502;2022-08-19T07:53:46;72.40;;;35.85;;
18610;SDS011;9435;52.122;5.502;2022-08-19T07:56:15;72.82;;;35.22;;
18610;SDS011;9435;52.122;5.502;2022-08-19T07:58:45;69.15;;;34.88;;
18610;SDS011;9435;52.122;5.502;2022-08-19T08:01:14;72.28;;;35.50;;
18610;SDS011;9435;52.122;5.502;2022-08-19T08:03:45;68.30;;;34.53;;
18610;SDS011;9435;52.122;5.502;2022-08-19T08:06:29;67.80;;;34.55;;
18610;SDS011;9435;52.122;5.502;2022-08-19T08:09:15;67.60;;;34.38;;
18610;SDS011;9435;52.122;5.502;2022-08-19T08:11:48;68.05;;;34.15;;
18610;SDS011;9435;52.122;5.502;2022-08-19T08:14:17;66.93;;;34.83;;
18610;SDS011;9435;52.122;5.502;2022-08-19T08:16:46;65.93;;;33.58;;
18610;SDS011;9435;52.122;5.502;2022-08-19T08:19:17;65.05;;;33.15;;
18610;SDS011;9435;52.122;5.502;2022-08-19T08:21:45;63.03;;;32.80;;
18610;SDS011;9435;52.122;5.502;2022-08-19T08:24:12;59.70;;;31.17;;
18610;SDS011;9435;52.122;5.502;2022-08-19T08:26:40;62.13;;;31.35;;
18610;SDS011;9435;52.122;5.502;2022-08-19T08:29:07;57.22;;;30.73;;
18610;SDS011;9435;52.122;5.502;2022-08-19T08:31:37;65.00;;;31.73;;
18610;SDS011;9435;52.122;5.502;2022-08-19T08:34:06;55.13;;;29.40;;
18610;SDS011;9435;52.122;5.502;2022-08-19T08:36:37;54.50;;;29.73;;
18610;SDS011;9435;52.122;5.502;2022-08-19T08:39:06;57.75;;;30.85;;
18610;SDS011;9435;52.122;5.502;2022-08-19T08:41:35;54.78;;;29.73;;
18610;SDS011;9435;52.122;5.502;2022-08-19T08:44:20;49.13;;;26.13;;
18610;SDS011;9435;52.122;5.502;2022-08-19T08:46:49;52.42;;;29.17;;
18610;SDS011;9435;52.122;5.502;2022-08-19T08:49:24;51.60;;;28.38;;
18610;SDS011;9435;52.122;5.502;2022-08-19T08:51:59;52.35;;;27.48;;
18610;SDS011;9435;52.122;5.502;2022-08-19T08:54:32;53.25;;;28.13;;
18610;SDS011;9435;52.122;5.502;2022-08-19T08:57:02;42.88;;;25.15;;
18610;SDS011;9435;52.122;5.502;2022-08-19T08:59:34;42.53;;;24.80;;
18610;SDS011;9435;52.122;5.502;2022-08-19T09:02:05;43.28;;;24.75;;
18610;SDS011;9435;52.122;5.502;2022-08-19T09:04:33;39.13;;;21.63;;
18610;SDS011;9435;52.122;5.502;2022-08-19T09:07:06;41.70;;;23.83;;
18610;SDS011;9435;52.122;5.502;2022-08-19T09:09:49;40.88;;;22.42;;
18610;SDS011;9435;52.122;5.502;2022-08-19T09:12:20;34.33;;;20.00;;
18610;SDS011;9435;52.122;5.502;2022-08-19T09:14:53;42.17;;;23.95;;
18610;SDS011;9435;52.122;5.502;2022-08-19T09:17:26;38.85;;;21.77;;
18610;SDS011;9435;52.122;5.502;2022-08-19T09:19:58;36.95;;;21.13;;
18610;SDS011;9435;52.122;5.502;2022-08-19T09:22:31;33.47;;;20.27;;
18610;SDS011;9435;52.122;5.502;2022-08-19T09:24:58;32.10;;;19.60;;
18610;SDS011;9435;52.122;5.502;2022-08-19T09:27:26;36.33;;;20.17;;
18610;SDS011;9435;52.122;5.502;2022-08-19T09:29:54;31.15;;;17.73;;
18610;SDS011;9435;52.122;5.502;2022-08-19T09:32:21;29.33;;;18.02;;
18610;SDS011;9435;52.122;5.502;2022-08-19T09:34:48;32.08;;;19.10;;
18610;SDS011;9435;52.122;5.502;2022-08-19T09:37:18;30.70;;;18.33;;
18610;SDS011;9435;52.122;5.502;2022-08-19T09:39:46;32.92;;;18.88;;
18610;SDS011;9435;52.122;5.502;2022-08-19T09:42:13;32.33;;;17.27;;
18610;SDS011;9435;52.122;5.502;2022-08-19T09:44:41;32.90;;;19.00;;
18610;SDS011;9435;52.122;5.502;2022-08-19T09:47:09;29.40;;;17.05;;
18610;SDS011;9435;52.122;5.502;2022-08-19T09:49:37;30.77;;;18.55;;
18610;SDS011;9435;52.122;5.502;2022-08-19T09:52:05;35.33;;;19.65;;
18610;SDS011;9435;52.122;5.502;2022-08-19T09:54:32;29.50;;;17.23;;
18610;SDS011;9435;52.122;5.502;2022-08-19T09:57:01;29.13;;;18.45;;
18610;SDS011;9435;52.122;5.502;2022-08-19T09:59:28;28.58;;;17.15;;
18610;SDS011;9435;52.122;5.502;2022-08-19T10:01:55;26.63;;;16.80;;
18610;SDS011;9435;52.122;5.502;2022-08-19T10:04:22;30.15;;;16.92;;
18610;SDS011;9435;52.122;5.502;2022-08-19T10:07:09;27.05;;;16.80;;
18610;SDS011;9435;52.122;5.502;2022-08-19T10:09:37;24.45;;;14.30;;
18610;SDS011;9435;52.122;5.502;2022-08-19T10:12:07;25.10;;;13.07;;
18610;SDS011;9435;52.122;5.502;2022-08-19T10:14:35;23.67;;;15.50;;
18610;SDS011;9435;52.122;5.502;2022-08-19T10:17:02;23.65;;;15.18;;
18610;SDS011;9435;52.122;5.502;2022-08-19T10:19:29;22.83;;;14.63;;
18610;SDS011;9435;52.122;5.502;2022-08-19T10:22:02;22.73;;;13.80;;
18610;SDS011;9435;52.122;5.502;2022-08-19T10:24:29;24.73;;;15.02;;
18610;SDS011;9435;52.122;5.502;2022-08-19T10:26:57;22.67;;;13.52;;
18610;SDS011;9435;52.122;5.502;2022-08-19T10:29:25;25.38;;;15.48;;
18610;SDS011;9435;52.122;5.502;2022-08-19T10:31:53;23.77;;;14.85;;
18610;SDS011;9435;52.122;5.502;2022-08-19T10:34:21;25.17;;;14.52;;
18610;SDS011;9435;52.122;5.502;2022-08-19T10:36:48;22.65;;;14.68;;
18610;SDS011;9435;52.122;5.502;2022-08-19T10:39:16;22.30;;;14.32;;
18610;SDS011;9435;52.122;5.502;2022-08-19T10:41:43;25.45;;;15.50;;
18610;SDS011;9435;52.122;5.502;2022-08-19T10:44:10;25.38;;;15.40;;
18610;SDS011;9435;52.122;5.502;2022-08-19T10:46:40;29.55;;;18.55;;
18610;SDS011;9435;52.122;5.502;2022-08-19T10:49:10;27.10;;;17.80;;
18610;SDS011;9435;52.122;5.502;2022-08-19T10:51:37;22.17;;;15.23;;
18610;SDS011;9435;52.122;5.502;2022-08-19T10:54:22;24.35;;;15.88;;
18610;SDS011;9435;52.122;5.502;2022-08-19T10:57:09;26.42;;;17.77;;
18610;SDS011;9435;52.122;5.502;2022-08-19T10:59:35;28.30;;;18.52;;
18610;SDS011;9435;52.122;5.502;2022-08-19T11:02:04;27.40;;;17.50;;
18610;SDS011;9435;52.122;5.502;2022-08-19T11:04:34;29.13;;;19.13;;
18610;SDS011;9435;52.122;5.502;2022-08-19T11:07:02;29.65;;;18.52;;
18610;SDS011;9435;52.122;5.502;2022-08-19T11:09:30;27.30;;;19.13;;
18610;SDS011;9435;52.122;5.502;2022-08-19T11:11:57;27.45;;;18.38;;
18610;SDS011;9435;52.122;5.502;2022-08-19T11:14:24;29.38;;;20.88;;
18610;SDS011;9435;52.122;5.502;2022-08-19T11:16:53;29.75;;;19.92;;
18610;SDS011;9435;52.122;5.502;2022-08-19T11:19:24;37.90;;;22.38;;
18610;SDS011;9435;52.122;5.502;2022-08-19T11:21:51;34.83;;;22.27;;
18610;SDS011;9435;52.122;5.502;2022-08-19T11:24:20;34.22;;;21.85;;
18610;SDS011;9435;52.122;5.502;2022-08-19T11:26:50;31.50;;;21.83;;
18610;SDS011;9435;52.122;5.502;2022-08-19T11:29:20;34.55;;;23.08;;
18610;SDS011;9435;52.122;5.502;2022-08-19T11:31:51;37.17;;;24.55;;
18610;SDS011;9435;52.122;5.502;2022-08-19T11:34:20;38.58;;;25.20;;
18610;SDS011;9435;52.122;5.502;2022-08-19T11:36:50;38.70;;;24.35;;
18610;SDS011;9435;52.122;5.502;2022-08-19T11:39:19;38.05;;;25.20;;
18610;SDS011;9435;52.122;5.502;2022-08-19T11:41:49;38.63;;;25.40;;
18610;SDS011;9435;52.122;5.502;2022-08-19T11:44:16;41.47;;;26.00;;
18610;SDS011;9435;52.122;5.502;2022-08-19T11:46:43;39.60;;;25.63;;
18610;SDS011;9435;52.122;5.502;2022-08-19T11:49:12;42.72;;;26.15;;
18610;SDS011;9435;52.122;5.502;2022-08-19T11:51:39;37.20;;;23.48;;
18610;SDS011;9435;52.122;5.502;2022-08-19T11:54:09;40.05;;;25.35;;
18610;SDS011;9435;52.122;5.502;2022-08-19T11:56:42;41.22;;;26.85;;
18610;SDS011;9435;52.122;5.502;2022-08-19T11:59:09;42.50;;;27.83;;
18610;SDS011;9435;52.122;5.502;2022-08-19T12:01:36;40.53;;;26.13;;
18610;SDS011;9435;52.122;5.502;2022-08-19T12:04:05;38.63;;;23.63;;
18610;SDS011;9435;52.122;5.502;2022-08-19T12:06:33;38.58;;;24.00;;
18610;SDS011;9435;52.122;5.502;2022-08-19T12:09:00;33.45;;;22.95;;
18610;SDS011;9435;52.122;5.502;2022-08-19T12:11:31;28.50;;;20.50;;
18610;SDS011;9435;52.122;5.502;2022-08-19T12:13:58;37.65;;;24.77;;
18610;SDS011;9435;52.122;5.502;2022-08-19T12:16:26;36.90;;;24.48;;
18610;SDS011;9435;52.122;5.502;2022-08-19T12:18:54;36.58;;;24.60;;
18610;SDS011;9435;52.122;5.502;2022-08-19T12:21:24;38.97;;;24.77;;
18610;SDS011;9435;52.122;5.502;2022-08-19T12:23:53;41.45;;;25.35;;
18610;SDS011;9435;52.122;5.502;2022-08-19T12:26:22;34.85;;;22.75;;
18610;SDS011;9435;52.122;5.502;2022-08-19T12:28:51;38.42;;;24.10;;
18610;SDS011;9435;52.122;5.502;2022-08-19T12:31:18;41.33;;;25.33;;
18610;SDS011;9435;52.122;5.502;2022-08-19T12:33:45;34.67;;;22.20;;
18610;SDS011;9435;52.122;5.502;2022-08-19T12:36:13;30.30;;;20.42;;
18610;SDS011;9435;52.122;5.502;2022-08-19T12:38:42;35.92;;;23.38;;
18610;SDS011;9435;52.122;5.502;2022-08-19T12:41:11;38.78;;;25.17;;
18610;SDS011;9435;52.122;5.502;2022-08-19T12:43:40;31.73;;;20.75;;
18610;SDS011;9435;52.122;5.502;2022-08-19T12:46:09;33.05;;;20.60;;
18610;SDS011;9435;52.122;5.502;2022-08-19T12:48:37;38.40;;;24.02;;
18610;SDS011;9435;52.122;5.502;2022-08-19T12:51:06;38.40;;;24.55;;
18610;SDS011;9435;52.122;5.502;2022-08-19T12:53:35;33.65;;;23.55;;
18610;SDS011;9435;52.122;5.502;2022-08-19T12:56:02;32.47;;;22.05;;
18610;SDS011;9435;52.122;5.502;2022-08-19T12:58:30;31.45;;;21.73;;
18610;SDS011;9435;52.122;5.502;2022-08-19T13:00:59;29.92;;;20.40;;
18610;SDS011;9435;52.122;5.502;2022-08-19T13:03:27;22.63;;;15.15;;
18610;SDS011;9435;52.122;5.502;2022-08-19T13:05:54;29.75;;;19.98;;
18610;SDS011;9435;52.122;5.502;2022-08-19T13:08:22;25.27;;;17.23;;
18610;SDS011;9435;52.122;5.502;2022-08-19T13:10:49;20.80;;;14.20;;
18610;SDS011;9435;52.122;5.502;2022-08-19T13:13:16;22.30;;;15.82;;
18610;SDS011;9435;52.122;5.502;2022-08-19T13:15:43;22.40;;;17.35;;
18610;SDS011;9435;52.122;5.502;2022-08-19T13:18:11;26.35;;;18.17;;
18610;SDS011;9435;52.122;5.502;2022-08-19T13:20:40;23.23;;;17.27;;
18610;SDS011;9435;52.122;5.502;2022-08-19T13:23:07;24.25;;;18.05;;
18610;SDS011;9435;52.122;5.502;2022-08-19T13:25:34;26.30;;;15.82;;
18610;SDS011;9435;52.122;5.502;2022-08-19T13:28:02;32.42;;;19.67;;
18610;SDS011;9435;52.122;5.502;2022-08-19T13:30:31;32.47;;;19.70;;
18610;SDS011;9435;52.122;5.502;2022-08-19T13:33:27;40.53;;;23.67;;
18610;SDS011;9435;52.122;5.502;2022-08-19T13:35:57;27.65;;;19.27;;
18610;SDS011;9435;52.122;5.502;2022-08-19T13:38:25;29.17;;;19.20;;
18610;SDS011;9435;52.122;5.502;2022-08-19T13:40:54;31.48;;;18.40;;
18610;SDS011;9435;52.122;5.502;2022-08-19T13:43:22;35.67;;;23.38;;
18610;SDS011;9435;52.122;5.502;2022-08-19T13:45:52;29.00;;;19.75;;
18610;SDS011;9435;52.122;5.502;2022-08-19T13:48:21;29.23;;;18.67;;
18610;SDS011;9435;52.122;5.502;2022-08-19T13:50:49;25.20;;;18.77;;
18610;SDS011;9435;52.122;5.502;2022-08-19T13:53:17;24.40;;;17.63;;
18610;SDS011;9435;52.122;5.502;2022-08-19T13:55:45;29.52;;;20.58;;
18610;SDS011;9435;52.122;5.502;2022-08-19T13:58:12;33.85;;;24.98;;
18610;SDS011;9435;52.122;5.502;2022-08-19T14:00:41;35.40;;;24.02;;
18610;SDS011;9435;52.122;5.502;2022-08-19T14:03:10;31.25;;;23.17;;
18610;SDS011;9435;52.122;5.502;2022-08-19T14:05:37;29.30;;;22.42;;
18610;SDS011;9435;52.122;5.502;2022-08-19T14:08:04;27.88;;;21.20;;
18610;SDS011;9435;52.122;5.502;2022-08-19T14:10:33;27.27;;;16.73;;
18610;SDS011;9435;52.122;5.502;2022-08-19T14:13:01;18.35;;;10.07;;
18610;SDS011;9435;52.122;5.502;2022-08-19T14:15:29;17.73;;;8.95;;
18610;SDS011;9435;52.122;5.502;2022-08-19T14:17:56;12.75;;;7.50;;
18610;SDS011;9435;52.122;5.502;2022-08-19T14:20:24;11.00;;;6.10;;
18610;SDS011;9435;52.122;5.502;2022-08-19T14:22:52;7.78;;;5.30;;
18610;SDS011;9435;52.122;5.502;2022-08-19T14:25:20;9.98;;;5.20;;
18610;SDS011;9435;52.122;5.502;2022-08-19T14:27:50;7.30;;;4.90;;
18610;SDS011;9435;52.122;5.502;2022-08-19T14:30:18;10.38;;;5.80;;
18610;SDS011;9435;52.122;5.502;2022-08-19T14:32:47;10.02;;;6.30;;
18610;SDS011;9435;52.122;5.502;2022-08-19T14:35:14;9.70;;;7.47;;
18610;SDS011;9435;52.122;5.502;2022-08-19T14:37:43;9.85;;;7.55;;
18610;SDS011;9435;52.122;5.502;2022-08-19T14:40:11;16.65;;;11.07;;
18610;SDS011;9435;52.122;5.502;2022-08-19T14:42:39;17.55;;;11.60;;
18610;SDS011;9435;52.122;5.502;2022-08-19T14:45:09;17.65;;;10.75;;
18610;SDS011;9435;52.122;5.502;2022-08-19T14:47:38;16.75;;;9.80;;
18610;SDS011;9435;52.122;5.502;2022-08-19T14:50:06;15.52;;;10.77;;
18610;SDS011;9435;52.122;5.502;2022-08-19T14:52:34;18.35;;;12.13;;
18610;SDS011;9435;52.122;5.502;2022-08-19T14:55:01;14.80;;;10.48;;